Time;durP1;ratioP1;P1;durP2;ratioP2;P2;SDS_P1;SDS_P2;PMS_P1;PMS_P2;Temp;Humidity;BMP_temperature;BMP_pressure;BME280_temperature;BME280_humidity;BME280_pressure;Samples;Min_cycle;Max_cycle;Signal;HPM_P1;HPM_P2
2022/02/28 00:00:45;;;;;;;;;;;;;;;-2.06;64.40;103026.96;1617108;87;20124;-75
2022/02/28 00:03:11;;;;;;;;;;;;;;;-2.04;64.39;103029.22;1588394;89;20093;-75
2022/02/28 00:05:37;;;;;;;;;;;;;;;-2.02;64.39;103019.69;1587564;90;20180;-75
2022/02/28 00:08:03;;;;;;;;;;;;;;;-1.98;64.46;103020.80;1545410;90;20139;-75
2022/02/28 00:10:29;;;;;;;;;;;;;;;-1.95;64.48;103023.56;1582113;90;20195;-75
2022/02/28 00:12:55;;;;;;;;;;;;;;;-1.93;64.51;103027.09;1546939;91;20110;-75
2022/02/28 00:15:21;;;;;;;;;;;;;;;-1.92;64.50;103029.24;1561622;91;20154;-75
2022/02/28 00:17:48;;;;;;;;;;;;;;;-1.93;64.44;103027.48;1585379;90;20180;-75
2022/02/28 00:20:16;;;;;;;;;;;;;;;-1.94;64.43;103021.52;1582059;90;20231;-75
2022/02/28 00:22:42;;;;;;;;;;;;;;;-1.93;64.49;103025.83;1577549;89;20625;-75
2022/02/28 00:25:09;;;;;;;;;;;;;;;-1.93;64.57;103022.41;1584324;90;20176;-75
2022/02/28 00:27:35;;;;;;;;;;;;;;;-1.93;64.65;103022.41;1584383;89;20167;-75
2022/02/28 00:30:03;;;;;;;;;;;;;;;-1.94;64.52;103024.45;1576705;90;20182;-75
2022/02/28 00:32:29;;;;;;;;;;;;;;;-1.94;64.68;103026.98;1580156;90;20141;-75
2022/02/28 00:34:54;;;;;;;;;;;;;;;-1.93;64.64;103026.21;1562586;91;20250;-75
2022/02/28 00:37:20;;;;;;;;;;;;;;;-1.91;64.73;103031.89;1590116;90;20148;-75
2022/02/28 00:39:46;;;;;;;;;;;;;;;-1.87;64.70;103032.61;1612132;87;20173;-75
2022/02/28 00:42:12;;;;;;;;;;;;;;;-1.82;64.87;103029.14;1602059;88;20107;-75
2022/02/28 00:44:39;;;;;;;;;;;;;;;-1.79;64.87;103027.72;1622232;87;20181;-75
2022/02/28 00:47:05;;;;;;;;;;;;;;;-1.76;64.81;103021.98;1633670;87;20102;-75
2022/02/28 00:49:33;;;;;;;;;;;;;;;-1.71;64.90;103019.39;1602479;89;20111;-75
2022/02/28 00:51:59;;;;;;;;;;;;;;;-1.69;64.87;103019.13;1611752;88;20166;-75
2022/02/28 00:54:27;;;;;;;;;;;;;;;-1.67;64.82;103018.84;1610956;87;20148;-75
2022/02/28 00:56:55;;;;;;;;;;;;;;;-1.63;64.95;103019.56;1611741;88;20103;-75
2022/02/28 00:59:21;;;;;;;;;;;;;;;-1.60;64.93;103021.44;1611626;88;20128;-75
2022/02/28 01:01:47;;;;;;;;;;;;;;;-1.59;64.96;103021.55;1620381;88;20198;-75
2022/02/28 01:04:14;;;;;;;;;;;;;;;-1.57;65.04;103015.31;1610011;88;20134;-75
2022/02/28 01:06:40;;;;;;;;;;;;;;;-1.53;65.06;103013.46;1614325;88;20218;-75
2022/02/28 01:09:06;;;;;;;;;;;;;;;-1.51;65.10;103015.34;1609730;87;20129;-75
2022/02/28 01:11:33;;;;;;;;;;;;;;;-1.47;65.16;103025.31;1616217;88;20111;-75
2022/02/28 01:13:59;;;;;;;;;;;;;;;-1.44;65.13;103024.27;1612053;88;20169;-75
2022/02/28 01:16:25;;;;;;;;;;;;;;;-1.41;65.22;103020.67;1617436;88;20151;-75
2022/02/28 01:18:51;;;;;;;;;;;;;;;-1.36;65.21;103021.89;1613209;88;20158;-75
2022/02/28 01:21:17;;;;;;;;;;;;;;;-1.31;65.31;103018.41;1606556;88;20141;-75
2022/02/28 01:23:43;;;;;;;;;;;;;;;-1.29;65.38;103010.13;1626780;87;20161;-75
2022/02/28 01:26:09;;;;;;;;;;;;;;;-1.25;65.32;103002.34;1595809;89;20180;-75
2022/02/28 01:28:35;;;;;;;;;;;;;;;-1.21;65.41;103005.20;1622217;87;20103;-75
2022/02/28 01:31:02;;;;;;;;;;;;;;;-1.18;65.51;103003.27;1633353;87;20135;-75
2022/02/28 01:33:28;;;;;;;;;;;;;;;-1.17;65.34;102998.30;1593558;89;20113;-75
2022/02/28 01:35:54;;;;;;;;;;;;;;;-1.14;65.52;103000.17;1622288;87;20157;-75
2022/02/28 01:38:20;;;;;;;;;;;;;;;-1.12;65.48;102994.81;1636119;87;20125;-75
2022/02/28 01:40:46;;;;;;;;;;;;;;;-1.10;65.51;102995.41;1597682;88;20240;-75
2022/02/28 01:43:14;;;;;;;;;;;;;;;-1.08;65.48;102993.86;1602879;89;20157;-75
2022/02/28 01:45:40;;;;;;;;;;;;;;;-1.05;65.63;102991.53;1622413;87;20197;-75
2022/02/28 01:48:05;;;;;;;;;;;;;;;-1.02;65.64;102990.44;1624460;87;20210;-75
2022/02/28 01:50:37;;;;;;;;;;;;;;;-0.98;65.66;102997.88;1582218;89;20210;-75
2022/02/28 01:53:04;;;;;;;;;;;;;;;-0.95;65.67;102995.55;1611880;88;20233;-75
2022/02/28 01:55:30;;;;;;;;;;;;;;;-0.93;65.68;102986.77;1610606;87;20162;-75
2022/02/28 01:57:56;;;;;;;;;;;;;;;-0.88;65.72;102981.63;1605889;88;20129;-75
2022/02/28 02:00:25;;;;;;;;;;;;;;;-0.87;65.70;102980.84;1609250;88;20103;-75
2022/02/28 02:02:51;;;;;;;;;;;;;;;-0.86;65.75;102977.53;1611849;88;20141;-75
2022/02/28 02:05:17;;;;;;;;;;;;;;;-0.84;65.72;102974.31;1610128;88;20200;-75
2022/02/28 02:07:43;;;;;;;;;;;;;;;-0.82;65.64;102973.15;1623055;88;20178;-75
2022/02/28 02:10:10;;;;;;;;;;;;;;;-0.78;65.79;102971.31;1612130;88;20181;-75
2022/02/28 02:12:38;;;;;;;;;;;;;;;-0.76;65.81;102973.18;1615639;87;20166;-75
2022/02/28 02:15:10;;;;;;;;;;;;;;;-0.75;65.86;102967.32;1618088;88;20139;-75
2022/02/28 02:17:36;;;;;;;;;;;;;;;-0.71;65.91;102968.41;1631184;87;20137;-76
2022/02/28 02:20:21;;;;;;;;;;;;;;;-0.69;65.89;102962.66;1615321;87;20438;-75
2022/02/28 02:23:00;;;;;;;;;;;;;;;-0.67;65.94;102961.48;1617195;87;20115;-75
2022/02/28 02:25:26;;;;;;;;;;;;;;;-0.63;65.95;102958.77;1610992;88;20155;-75
2022/02/28 02:27:52;;;;;;;;;;;;;;;-0.60;65.99;102956.03;1611703;87;20124;-75
2022/02/28 02:30:18;;;;;;;;;;;;;;;-0.56;65.94;102955.86;1613994;88;20139;-75
2022/02/28 02:32:46;;;;;;;;;;;;;;;-0.55;65.89;102963.58;1612091;88;20151;-75
2022/02/28 02:35:12;;;;;;;;;;;;;;;-0.57;65.81;102963.87;1611897;88;20111;-75
2022/02/28 02:37:38;;;;;;;;;;;;;;;-0.59;65.79;102961.61;1609335;88;20199;-75
2022/02/28 02:40:05;;;;;;;;;;;;;;;-0.61;65.72;102969.91;1609600;88;20099;-75
2022/02/28 02:42:31;;;;;;;;;;;;;;;-0.63;66.03;102976.16;1611914;87;20132;-75
2022/02/28 02:44:57;;;;;;;;;;;;;;;-0.61;66.04;102974.60;1611799;88;20161;-75
2022/02/28 02:47:23;;;;;;;;;;;;;;;-0.59;66.11;102956.92;1623812;88;20192;-75
2022/02/28 02:49:49;;;;;;;;;;;;;;;-0.56;66.13;102953.31;1615236;88;20150;-75
2022/02/28 02:52:15;;;;;;;;;;;;;;;-0.54;66.14;102951.75;1613493;88;20221;-75
2022/02/28 02:54:41;;;;;;;;;;;;;;;-0.55;65.93;102949.60;1620420;88;20513;-75
2022/02/28 02:57:07;;;;;;;;;;;;;;;-0.55;66.16;102946.18;1611728;88;20350;-75
2022/02/28 02:59:33;;;;;;;;;;;;;;;-0.53;66.03;102962.41;1638912;87;20183;-75
2022/02/28 03:01:58;;;;;;;;;;;;;;;-0.54;66.20;102950.09;1638320;86;20238;-76
2022/02/28 03:04:24;;;;;;;;;;;;;;;-0.50;66.20;102946.95;1590309;89;20147;-75
2022/02/28 03:06:50;;;;;;;;;;;;;;;-0.51;66.28;102956.62;1597676;89;20206;-75
2022/02/28 03:09:16;;;;;;;;;;;;;;;-0.48;66.28;102950.86;1607065;89;20184;-75
2022/02/28 03:11:45;;;;;;;;;;;;;;;-0.47;66.36;102949.69;1621903;87;20098;-75
2022/02/28 03:14:12;;;;;;;;;;;;;;;-0.43;66.40;102942.76;1637344;87;20088;-75
2022/02/28 03:16:38;;;;;;;;;;;;;;;-0.40;66.43;102951.86;1632051;87;20108;-75
2022/02/28 03:19:09;;;;;;;;;;;;;;;-0.38;66.43;102950.30;1639743;87;20129;-75
2022/02/28 03:21:35;;;;;;;;;;;;;;;-0.37;66.41;102952.45;1593868;89;20193;-75
2022/02/28 03:24:00;;;;;;;;;;;;;;;-0.37;66.48;102949.52;1603022;89;20191;-75
2022/02/28 03:26:26;;;;;;;;;;;;;;;-0.34;66.51;102945.91;1611469;88;20170;-75
2022/02/28 03:28:52;;;;;;;;;;;;;;;-0.32;66.52;102940.92;1626885;87;20190;-75
2022/02/28 03:31:19;;;;;;;;;;;;;;;-0.31;66.55;102945.61;1638755;87;20113;-75
2022/02/28 03:33:45;;;;;;;;;;;;;;;-0.30;66.59;102946.98;1623099;87;20770;-75
2022/02/28 03:36:11;;;;;;;;;;;;;;;-0.26;66.60;102947.68;1619305;87;20222;-75
2022/02/28 03:38:36;;;;;;;;;;;;;;;-0.26;66.65;102943.87;1611876;88;20245;-75
2022/02/28 03:41:02;;;;;;;;;;;;;;;-0.22;66.70;102939.47;1619375;87;20185;-75
2022/02/28 03:43:28;;;;;;;;;;;;;;;-0.19;66.67;102946.42;1629417;87;20186;-75
2022/02/28 03:45:55;;;;;;;;;;;;;;;-0.19;66.70;102951.50;1620371;87;20155;-75
2022/02/28 03:48:21;;;;;;;;;;;;;;;-0.18;66.74;102950.33;1615538;87;20173;-75
2022/02/28 03:50:46;;;;;;;;;;;;;;;-0.17;66.70;102944.86;1612101;87;20245;-75
2022/02/28 03:53:12;;;;;;;;;;;;;;;-0.15;66.78;102948.37;1618255;87;20469;-75
2022/02/28 03:55:38;;;;;;;;;;;;;;;-0.15;66.77;102950.92;1612624;87;20184;-75
2022/02/28 03:58:03;;;;;;;;;;;;;;;-0.16;66.81;102961.87;1586348;90;20784;-75
2022/02/28 04:00:29;;;;;;;;;;;;;;;-0.16;66.80;102954.25;1579158;90;20183;-75
2022/02/28 04:02:55;;;;;;;;;;;;;;;-0.16;66.89;102961.48;1590049;88;20187;-75
2022/02/28 04:05:21;;;;;;;;;;;;;;;-0.15;66.94;102960.70;1590007;90;20148;-75
2022/02/28 04:07:47;;;;;;;;;;;;;;;-0.16;66.90;102953.86;1577454;88;20178;-75
2022/02/28 04:10:14;;;;;;;;;;;;;;;-0.15;66.98;102954.73;1548146;91;20115;-75
2022/02/28 04:12:40;;;;;;;;;;;;;;;-0.13;66.95;102953.17;1579587;90;20103;-76
2022/02/28 04:15:06;;;;;;;;;;;;;;;-0.12;67.00;102952.00;1575406;90;20274;-76
2022/02/28 04:17:33;;;;;;;;;;;;;;;-0.10;67.05;102953.38;1584908;89;20131;-76
2022/02/28 04:19:59;;;;;;;;;;;;;;;-0.10;67.07;102955.52;1584496;90;20131;-76
2022/02/28 04:22:25;;;;;;;;;;;;;;;-0.11;67.05;102956.70;1572609;90;20814;-76
2022/02/28 04:24:50;;;;;;;;;;;;;;;-0.11;67.08;102961.78;1540071;91;20807;-76
2022/02/28 04:27:16;;;;;;;;;;;;;;;-0.11;67.06;102952.88;1590113;89;20167;-76
2022/02/28 04:29:42;;;;;;;;;;;;;;;-0.11;67.11;102949.95;1572870;90;20747;-76
2022/02/28 04:32:08;;;;;;;;;;;;;;;-0.10;67.23;102943.20;1580707;90;21103;-76
2022/02/28 04:34:34;;;;;;;;;;;;;;;-0.10;67.16;102953.38;1577617;90;20765;-76
2022/02/28 04:37:01;;;;;;;;;;;;;;;-0.11;67.16;102951.22;1570364;89;21208;-76
2022/02/28 04:39:27;;;;;;;;;;;;;;;-0.10;67.16;102948.29;1581940;88;20424;-76
2022/02/28 04:41:53;;;;;;;;;;;;;;;-0.10;67.16;102952.10;1623417;87;20736;-76
2022/02/28 04:44:19;;;;;;;;;;;;;;;-0.11;67.21;102951.22;1645258;86;20652;-76
2022/02/28 04:46:45;;;;;;;;;;;;;;;-0.12;67.25;102946.92;1614549;88;20467;-76
2022/02/28 04:49:11;;;;;;;;;;;;;;;-0.13;67.29;102951.51;1636121;86;20855;-75
2022/02/28 04:51:37;;;;;;;;;;;;;;;-0.16;67.32;102946.62;1650484;86;20123;-75
2022/02/28 04:54:03;;;;;;;;;;;;;;;-0.16;67.35;102949.16;1644612;86;20151;-75
2022/02/28 04:56:28;;;;;;;;;;;;;;;-0.17;67.32;102950.82;1609678;88;21244;-75
2022/02/28 04:58:56;;;;;;;;;;;;;;;-0.16;67.33;102942.80;1637079;86;20469;-75
2022/02/28 05:01:23;;;;;;;;;;;;;;;-0.15;67.27;102943.30;1646464;85;20427;-75
2022/02/28 05:03:48;;;;;;;;;;;;;;;-0.16;67.28;102944.08;1645647;85;20805;-76
2022/02/28 05:06:14;;;;;;;;;;;;;;;-0.17;67.37;102948.28;1620843;87;20175;-76
2022/02/28 05:08:40;;;;;;;;;;;;;;;-0.18;67.40;102948.18;1653628;86;21432;-74
2022/02/28 05:11:05;;;;;;;;;;;;;;;-0.19;67.44;102943.88;1652639;86;20167;-73
2022/02/28 05:13:31;;;;;;;;;;;;;;;-0.20;67.42;102948.08;1642674;85;21143;-74
2022/02/28 05:15:57;;;;;;;;;;;;;;;-0.22;67.39;102943.67;1622422;86;20761;-73
2022/02/28 05:18:23;;;;;;;;;;;;;;;-0.24;67.48;102947.39;1636750;86;20097;-73
2022/02/28 05:20:49;;;;;;;;;;;;;;;-0.23;67.50;102945.34;1652622;86;20731;-73
2022/02/28 05:23:15;;;;;;;;;;;;;;;-0.23;67.51;102945.73;1612464;88;21206;-73
2022/02/28 05:25:43;;;;;;;;;;;;;;;-0.26;67.52;102948.95;1638537;85;20445;-73
2022/02/28 05:28:09;;;;;;;;;;;;;;;-0.26;67.56;102948.95;1639148;85;20165;-73
2022/02/28 05:30:35;;;;;;;;;;;;;;;-0.25;67.54;102953.25;1632317;86;20492;-73
2022/02/28 05:33:01;;;;;;;;;;;;;;;-0.27;67.52;102949.73;1628283;86;20808;-73
2022/02/28 05:35:27;;;;;;;;;;;;;;;-0.26;67.59;102956.97;1657844;85;20738;-73
2022/02/28 05:37:53;;;;;;;;;;;;;;;-0.25;67.70;102957.45;1608292;88;20480;-73
2022/02/28 05:40:20;;;;;;;;;;;;;;;-0.22;67.73;102962.74;1615546;88;20780;-73
2022/02/28 05:42:46;;;;;;;;;;;;;;;-0.21;67.73;102953.95;1644924;86;20162;-72
2022/02/28 05:45:12;;;;;;;;;;;;;;;-0.18;67.73;102959.63;1648620;86;20149;-73
2022/02/28 05:47:42;;;;;;;;;;;;;;;-0.18;67.69;102966.86;1619832;88;20426;-73
2022/02/28 05:50:06;;;;;;;;;;;;;;;-0.21;67.67;102967.93;1637651;86;20442;-72
2022/02/28 05:52:35;;;;;;;;;;;;;;;-0.24;67.71;102972.81;1642719;86;20732;-72
2022/02/28 05:55:01;;;;;;;;;;;;;;;-0.28;67.78;102972.51;1603734;86;20589;-72
2022/02/28 05:57:26;;;;;;;;;;;;;;;-0.30;67.81;102977.88;1635945;86;21106;-72
2022/02/28 05:59:52;;;;;;;;;;;;;;;-0.33;67.89;102981.10;1652180;86;20225;-72
2022/02/28 06:02:18;;;;;;;;;;;;;;;-0.37;67.83;102979.14;1637187;87;20223;-72
2022/02/28 06:04:44;;;;;;;;;;;;;;;-0.38;67.85;102986.27;1630508;87;20495;-72
2022/02/28 06:07:09;;;;;;;;;;;;;;;-0.36;67.87;102983.44;1639714;85;20150;-72
2022/02/28 06:09:39;;;;;;;;;;;;;;;-0.32;67.83;102987.95;1641544;87;20110;-72
2022/02/28 06:12:04;;;;;;;;;;;;;;;-0.30;67.87;102984.23;1634963;87;20170;-74
2022/02/28 06:14:30;;;;;;;;;;;;;;;-0.28;67.91;102988.64;1628281;87;20670;-74
2022/02/28 06:16:56;;;;;;;;;;;;;;;-0.26;67.91;102987.08;1640062;87;20189;-74
2022/02/28 06:19:21;;;;;;;;;;;;;;;-0.21;67.98;102993.35;1629748;87;20157;-74
2022/02/28 06:21:47;;;;;;;;;;;;;;;-0.16;67.91;102995.81;1642987;86;20206;-74
2022/02/28 06:24:13;;;;;;;;;;;;;;;-0.13;68.02;102993.86;1616018;87;20629;-74
2022/02/28 06:26:39;;;;;;;;;;;;;;;-0.09;67.98;102995.42;1635763;86;20203;-74
2022/02/28 06:29:06;;;;;;;;;;;;;;;-0.05;68.03;102997.78;1652694;85;20141;-74
2022/02/28 06:31:32;;;;;;;;;;;;;;;0.00;68.01;103004.05;1654268;84;20186;-74
2022/02/28 06:33:58;;;;;;;;;;;;;;;0.08;68.08;103000.70;1619513;87;21122;-74
2022/02/28 06:36:24;;;;;;;;;;;;;;;0.16;68.08;103004.23;1634163;87;20206;-74
2022/02/28 06:38:50;;;;;;;;;;;;;;;0.27;68.15;103004.53;1641300;87;20188;-74
2022/02/28 06:41:16;;;;;;;;;;;;;;;0.41;68.18;103011.77;1616745;87;20241;-74
2022/02/28 06:43:42;;;;;;;;;;;;;;;0.59;68.20;103014.19;1586154;88;20144;-74
2022/02/28 06:46:08;;;;;;;;;;;;;;;0.76;68.19;103011.42;1587655;88;20146;-74
2022/02/28 06:48:34;;;;;;;;;;;;;;;0.96;68.22;103019.91;1577897;88;20207;-74
2022/02/28 06:51:02;;;;;;;;;;;;;;;1.13;68.21;103021.30;1559470;90;20096;-74
2022/02/28 06:53:28;;;;;;;;;;;;;;;1.34;68.22;103022.60;1586375;88;20174;-74
2022/02/28 06:55:57;;;;;;;;;;;;;;;1.54;68.14;103018.69;1581762;88;20138;-74
2022/02/28 06:58:23;;;;;;;;;;;;;;;1.73;68.07;103018.08;1571511;88;20199;-74
2022/02/28 07:00:50;;;;;;;;;;;;;;;1.97;68.05;103024.60;1579569;89;20199;-74
2022/02/28 07:03:17;;;;;;;;;;;;;;;2.19;68.00;103022.45;1583762;90;20101;-74
2022/02/28 07:05:48;;;;;;;;;;;;;;;2.34;67.84;103031.38;1549964;91;20219;-74
2022/02/28 07:08:11;;;;;;;;;;;;;;;2.48;67.86;103030.88;1599654;88;20110;-74
2022/02/28 07:10:37;;;;;;;;;;;;;;;2.67;67.98;103031.06;1584441;87;20168;-74
2022/02/28 07:13:03;;;;;;;;;;;;;;;2.87;67.92;103025.77;1558388;90;20825;-74
2022/02/28 07:15:29;;;;;;;;;;;;;;;3.03;67.78;103022.36;1579469;89;20227;-74
2022/02/28 07:17:55;;;;;;;;;;;;;;;3.11;67.73;103021.97;1558821;91;20885;-74
2022/02/28 07:20:22;;;;;;;;;;;;;;;3.22;67.72;103032.73;1558714;91;20154;-74
2022/02/28 07:22:47;;;;;;;;;;;;;;;3.26;67.68;103031.70;1584695;88;20692;-74
2022/02/28 07:25:13;;;;;;;;;;;;;;;3.28;67.70;103035.21;1595047;88;20172;-74
2022/02/28 07:27:43;;;;;;;;;;;;;;;3.35;67.86;103029.14;1579039;90;20209;-74
2022/02/28 07:30:09;;;;;;;;;;;;;;;3.44;67.85;103034.34;1561436;91;20170;-74
2022/02/28 07:32:35;;;;;;;;;;;;;;;3.59;67.74;103035.12;1559977;91;20095;-74
2022/02/28 07:35:01;;;;;;;;;;;;;;;3.71;67.71;103039.08;1573985;88;20801;-74
2022/02/28 07:37:27;;;;;;;;;;;;;;;3.85;67.69;103036.82;1583761;90;20503;-74
2022/02/28 07:39:53;;;;;;;;;;;;;;;4.01;67.69;103034.62;1584760;90;20171;-74
2022/02/28 07:42:19;;;;;;;;;;;;;;;4.18;67.74;103036.30;1599011;87;20248;-74
2022/02/28 07:44:45;;;;;;;;;;;;;;;4.27;67.54;103035.07;1626467;87;20512;-74
2022/02/28 07:47:11;;;;;;;;;;;;;;;4.37;67.66;103041.52;1626728;87;20177;-74
2022/02/28 07:49:38;;;;;;;;;;;;;;;4.46;67.67;103040.68;1638993;86;20258;-74
2022/02/28 07:52:04;;;;;;;;;;;;;;;4.51;67.69;103043.46;1627610;86;20222;-74
2022/02/28 07:54:31;;;;;;;;;;;;;;;4.53;67.67;103045.70;1626406;86;20242;-75
2022/02/28 07:56:57;;;;;;;;;;;;;;;4.60;67.70;103038.38;1623995;86;20245;-75
2022/02/28 07:59:23;;;;;;;;;;;;;;;4.72;67.71;103048.69;1632679;86;20166;-75
2022/02/28 08:01:55;;;;;;;;;;;;;;;4.87;67.86;103047.72;1634507;86;20240;-75
2022/02/28 08:04:21;;;;;;;;;;;;;;;5.06;68.15;103044.32;1606021;87;20193;-75
2022/02/28 08:06:47;;;;;;;;;;;;;;;5.12;68.07;103055.27;1622906;87;20272;-75
2022/02/28 08:09:13;;;;;;;;;;;;;;;5.15;68.06;103057.97;1646985;86;20231;-75
2022/02/28 08:11:39;;;;;;;;;;;;;;;5.15;68.08;103054.13;1624783;87;20218;-74
2022/02/28 08:14:05;;;;;;;;;;;;;;;5.13;68.10;103060.87;1626727;87;20134;-75
2022/02/28 08:16:33;;;;;;;;;;;;;;;5.10;68.06;103056.87;1620567;87;20236;-75
2022/02/28 08:18:59;;;;;;;;;;;;;;;4.99;67.91;103061.11;1599119;89;20216;-75
2022/02/28 08:21:27;;;;;;;;;;;;;;;4.86;67.94;103064.31;1627064;87;20269;-74
2022/02/28 08:23:53;;;;;;;;;;;;;;;4.82;67.89;103059.85;1615285;87;20273;-74
2022/02/28 08:26:19;;;;;;;;;;;;;;;4.78;68.00;103064.36;1612471;88;20201;-74
2022/02/28 08:28:44;;;;;;;;;;;;;;;4.79;67.96;103055.86;1611321;88;20281;-74
2022/02/28 08:31:10;;;;;;;;;;;;;;;4.77;67.82;103058.76;1619425;88;20274;-74
2022/02/28 08:33:37;;;;;;;;;;;;;;;4.77;67.87;103060.04;1615802;88;20436;-74
2022/02/28 08:36:03;;;;;;;;;;;;;;;4.79;67.52;103062.27;1616553;87;20205;-74
2022/02/28 08:38:28;;;;;;;;;;;;;;;4.72;67.55;103061.11;1618493;88;20363;-74
2022/02/28 08:40:57;;;;;;;;;;;;;;;4.75;67.74;103053.97;1604754;88;20229;-75
2022/02/28 08:43:23;;;;;;;;;;;;;;;4.75;67.58;103063.81;1610520;87;20197;-75
2022/02/28 08:45:49;;;;;;;;;;;;;;;4.69;67.48;103065.20;1621568;88;20283;-74
2022/02/28 08:48:14;;;;;;;;;;;;;;;4.60;67.47;103061.84;1618002;87;20193;-74
2022/02/28 08:50:41;;;;;;;;;;;;;;;4.48;67.29;103069.81;1610478;88;20198;-74
2022/02/28 08:53:07;;;;;;;;;;;;;;;4.31;67.29;103068.98;1638806;86;20196;-75
2022/02/28 08:55:33;;;;;;;;;;;;;;;4.19;67.31;103063.67;1637453;86;20318;-75
2022/02/28 08:57:59;;;;;;;;;;;;;;;4.09;67.37;103066.61;1631421;87;20206;-75
2022/02/28 09:00:25;;;;;;;;;;;;;;;3.92;67.25;103070.48;1636026;86;20207;-74
2022/02/28 09:02:51;;;;;;;;;;;;;;;3.76;67.17;103072.18;1603702;87;20208;-74
2022/02/28 09:05:17;;;;;;;;;;;;;;;3.61;67.10;103072.30;1602450;88;20279;-74
2022/02/28 09:07:43;;;;;;;;;;;;;;;3.52;67.17;103070.55;1637676;87;20247;-74
2022/02/28 09:10:09;;;;;;;;;;;;;;;3.45;67.19;103073.18;1637329;87;20183;-75
2022/02/28 09:12:35;;;;;;;;;;;;;;;3.38;67.18;103068.94;1643012;86;20324;-75
2022/02/28 09:15:01;;;;;;;;;;;;;;;3.32;67.19;103073.33;1638841;86;20279;-75
2022/02/28 09:17:27;;;;;;;;;;;;;;;3.33;67.02;103072.53;1634650;86;20195;-75
2022/02/28 09:19:53;;;;;;;;;;;;;;;3.29;67.04;103080.84;1611726;87;20660;-75
2022/02/28 09:22:18;;;;;;;;;;;;;;;3.26;66.95;103079.00;1599351;89;20175;-75
2022/02/28 09:24:45;;;;;;;;;;;;;;;3.24;66.90;103078.03;1637380;86;20262;-75
2022/02/28 09:27:10;;;;;;;;;;;;;;;3.22;66.84;103080.03;1635155;87;20184;-75
2022/02/28 09:29:36;;;;;;;;;;;;;;;3.20;66.77;103081.22;1637751;86;20179;-74
2022/02/28 09:32:03;;;;;;;;;;;;;;;3.18;66.70;103084.09;1627678;86;20184;-74
2022/02/28 09:34:30;;;;;;;;;;;;;;;3.19;66.58;103088.81;1623349;87;20202;-74
2022/02/28 09:36:56;;;;;;;;;;;;;;;3.22;66.60;103080.03;1637286;86;20562;-74
2022/02/28 09:39:22;;;;;;;;;;;;;;;3.23;66.60;103076.67;1637863;86;20779;-74
2022/02/28 09:41:49;;;;;;;;;;;;;;;3.24;66.74;103070.77;1618202;87;20232;-74
2022/02/28 09:44:15;;;;;;;;;;;;;;;3.24;66.49;103080.98;1620032;86;20477;-74
2022/02/28 09:46:45;;;;;;;;;;;;;;;3.21;66.55;103076.59;1615570;87;20218;-74
2022/02/28 09:49:12;;;;;;;;;;;;;;;3.25;66.36;103082.75;1636544;87;20201;-74
2022/02/28 09:51:38;;;;;;;;;;;;;;;3.27;66.26;103079.48;1627907;86;20192;-74
2022/02/28 09:54:05;;;;;;;;;;;;;;;3.28;66.27;103083.80;1620540;87;20187;-74
2022/02/28 09:56:31;;;;;;;;;;;;;;;3.25;66.15;103074.68;1630261;86;20208;-74
2022/02/28 09:58:58;;;;;;;;;;;;;;;3.28;66.28;103078.67;1628882;87;20228;-74
2022/02/28 10:01:24;;;;;;;;;;;;;;;3.29;66.29;103083.00;1633717;86;20192;-74
2022/02/28 10:03:50;;;;;;;;;;;;;;;3.29;65.98;103083.00;1605018;89;20241;-74
2022/02/28 10:06:16;;;;;;;;;;;;;;;3.35;66.17;103085.40;1596972;89;20229;-74
2022/02/28 10:08:50;;;;;;;;;;;;;;;3.34;65.72;103083.23;1617940;88;20274;-74
2022/02/28 10:11:29;;;;;;;;;;;;;;;3.33;65.84;103077.64;1626335;88;20126;-74
2022/02/28 10:13:56;;;;;;;;;;;;;;;3.36;65.83;103079.09;1624223;88;20474;-74
2022/02/28 10:16:39;;;;;;;;;;;;;;;3.44;65.82;103079.49;1624407;88;20135;-74
2022/02/28 10:19:10;;;;;;;;;;;;;;;3.48;65.65;103081.41;1621132;87;20165;-74
2022/02/28 10:21:45;;;;;;;;;;;;;;;3.46;65.64;103074.94;1621904;88;20134;-74
2022/02/28 10:24:19;;;;;;;;;;;;;;;3.44;65.66;103077.81;1624280;88;20407;-74
2022/02/28 10:26:48;;;;;;;;;;;;;;;3.47;65.55;103071.98;1618596;87;20538;-74
2022/02/28 10:29:17;;;;;;;;;;;;;;;3.51;65.36;103067.10;1624703;87;21876;-74
2022/02/28 10:31:46;;;;;;;;;;;;;;;3.53;65.45;103069.74;1620878;88;20127;-74
2022/02/28 10:34:17;;;;;;;;;;;;;;;3.56;65.57;103067.34;1614244;87;20119;-74
2022/02/28 10:36:57;;;;;;;;;;;;;;;3.57;65.26;103076.38;1617025;88;20108;-74
2022/02/28 10:39:25;;;;;;;;;;;;;;;3.64;65.33;103080.10;1612500;87;20121;-74
2022/02/28 10:41:51;;;;;;;;;;;;;;;3.70;65.18;103076.58;1610846;88;21152;-74
2022/02/28 10:44:17;;;;;;;;;;;;;;;3.73;65.21;103074.58;1614662;87;20115;-74
2022/02/28 10:46:46;;;;;;;;;;;;;;;3.81;65.52;103078.41;1614907;88;20129;-74
2022/02/28 10:49:17;;;;;;;;;;;;;;;3.84;65.11;103074.73;1606811;88;20135;-74
2022/02/28 10:51:55;;;;;;;;;;;;;;;3.87;65.00;103071.05;1606574;88;20130;-74
2022/02/28 10:54:33;;;;;;;;;;;;;;;3.93;65.09;103078.64;1621573;88;20449;-74
2022/02/28 10:57:10;;;;;;;;;;;;;;;4.02;64.99;103065.82;1631395;87;20112;-74
2022/02/28 10:59:51;;;;;;;;;;;;;;;3.99;64.69;103077.66;1635072;86;20099;-74
2022/02/28 11:02:34;;;;;;;;;;;;;;;3.98;64.55;103081.03;1630793;87;20165;-74
2022/02/28 11:05:09;;;;;;;;;;;;;;;3.96;64.46;103076.63;1632251;87;20118;-74
2022/02/28 11:07:43;;;;;;;;;;;;;;;3.99;64.56;103080.63;1631042;87;20143;-74
2022/02/28 11:10:11;;;;;;;;;;;;;;;4.03;64.58;103072.30;1636435;86;38522;-74
2022/02/28 11:12:38;;;;;;;;;;;;;;;4.10;64.49;103072.20;1632993;87;20112;-74
2022/02/28 11:15:09;;;;;;;;;;;;;;;4.17;64.57;103074.23;1616020;87;20136;-74
2022/02/28 11:17:39;;;;;;;;;;;;;;;4.19;64.45;103073.51;1636595;86;20406;-74
2022/02/28 11:20:08;;;;;;;;;;;;;;;4.20;64.29;103074.39;1631939;86;20166;-74
2022/02/28 11:22:35;;;;;;;;;;;;;;;4.25;64.46;103071.66;1630496;87;20131;-74
2022/02/28 11:25:05;;;;;;;;;;;;;;;4.28;64.00;103070.13;1617867;87;20533;-74
2022/02/28 11:27:31;;;;;;;;;;;;;;;4.30;64.10;103068.52;1601786;88;20115;-74
2022/02/28 11:30:00;;;;;;;;;;;;;;;4.35;63.93;103070.42;1626796;86;20170;-74
2022/02/28 11:32:27;;;;;;;;;;;;;;;4.35;64.05;103072.98;1639257;86;20116;-74
2022/02/28 11:34:55;;;;;;;;;;;;;;;4.36;63.54;103066.66;1635501;86;20126;-74
2022/02/28 11:37:26;;;;;;;;;;;;;;;4.35;63.94;103071.70;1627540;87;20466;-74
2022/02/28 11:39:55;;;;;;;;;;;;;;;4.29;63.87;103069.31;1638889;86;20172;-74
2022/02/28 11:42:41;;;;;;;;;;;;;;;4.27;63.71;103079.01;1624709;87;20098;-74
2022/02/28 11:45:09;;;;;;;;;;;;;;;4.28;63.88;103075.24;1636747;87;20104;-74
2022/02/28 11:47:35;;;;;;;;;;;;;;;4.31;63.58;103071.55;1625067;87;20592;-74
2022/02/28 11:50:17;;;;;;;;;;;;;;;4.33;63.47;103075.07;1620765;87;20189;-74
2022/02/28 11:52:43;;;;;;;;;;;;;;;4.38;63.02;103080.41;1630655;87;20115;-75
2022/02/28 11:55:14;;;;;;;;;;;;;;;4.37;63.16;103073.53;1599514;89;20156;-75
2022/02/28 11:57:55;;;;;;;;;;;;;;;4.37;62.91;103081.22;1624134;87;20135;-75
2022/02/28 12:00:43;;;;;;;;;;;;;;;4.39;63.38;103082.17;1601831;89;20103;-74
2022/02/28 12:03:21;;;;;;;;;;;;;;;4.46;63.10;103075.66;1619308;87;20360;-74
2022/02/28 12:05:49;;;;;;;;;;;;;;;4.49;63.13;103076.70;1609085;88;20110;-74
2022/02/28 12:08:20;;;;;;;;;;;;;;;4.51;62.55;103075.09;1612019;88;20104;-74
2022/02/28 12:10:56;;;;;;;;;;;;;;;4.50;62.94;103072.05;1614570;88;20189;-74
2022/02/28 12:13:35;;;;;;;;;;;;;;;4.49;62.77;103078.38;1601193;88;20141;-74
2022/02/28 12:17:31;;;;;;;;;;;;;;;4.46;62.71;103075.27;1617370;88;20138;-74
2022/02/28 12:19:15;;;;;;;;;;;;;;;4.44;62.77;103079.84;1520486;92;20424;-74
2022/02/28 12:21:47;;;;;;;;;;;;;;;4.45;62.79;103072.62;1581422;87;20205;-74
2022/02/28 12:24:14;;;;;;;;;;;;;;;4.44;62.38;103073.44;1626587;86;20205;-74
2022/02/28 12:26:40;;;;;;;;;;;;;;;4.47;62.32;103069.73;1634901;86;20134;-74
2022/02/28 12:29:10;;;;;;;;;;;;;;;4.50;62.59;103075.01;1636135;86;20699;-74
2022/02/28 12:31:43;;;;;;;;;;;;;;;4.49;62.23;103071.57;1610725;87;20091;-74
2022/02/28 12:34:10;;;;;;;;;;;;;;;4.51;62.05;103067.80;1630368;86;20119;-74
2022/02/28 12:36:37;;;;;;;;;;;;;;;4.48;62.25;103064.69;1632586;86;20166;-74
2022/02/28 12:39:06;;;;;;;;;;;;;;;4.50;62.26;103066.05;1638629;86;20129;-74
2022/02/28 12:41:35;;;;;;;;;;;;;;;4.51;61.77;103062.27;1631676;87;20120;-74